createdAt,value
2017-08-09T00:01:57.624Z,11.77
2017-08-09T00:04:25.936Z,11.97
2017-08-09T00:06:53.467Z,10.83
2017-08-09T00:09:20.986Z,12.10
2017-08-09T00:11:48.488Z,10.70
2017-08-09T00:14:16.057Z,10.53
2017-08-09T00:16:43.629Z,10.90
2017-08-09T00:19:11.133Z,9.57
2017-08-09T00:21:38.748Z,10.77
2017-08-09T00:24:06.275Z,10.47
2017-08-09T00:26:34.549Z,11.27
2017-08-09T00:29:02.873Z,10.90
2017-08-09T00:31:30.392Z,10.30
2017-08-09T00:33:57.919Z,10.23
2017-08-09T00:36:25.470Z,12.77
2017-08-09T00:38:53.094Z,10.70
2017-08-09T00:41:20.651Z,11.10
2017-08-09T00:43:48.180Z,11.90
2017-08-09T00:46:16.451Z,10.67
2017-08-09T00:48:44.720Z,11.43
2017-08-09T00:51:13.015Z,10.33
2017-08-09T00:53:40.534Z,10.40
2017-08-09T00:56:08.160Z,10.00
2017-08-09T00:58:35.706Z,10.77
2017-08-09T01:01:03.227Z,9.90
2017-08-09T01:03:31.519Z,11.30
2017-08-09T01:05:59.816Z,12.40
2017-08-09T01:08:27.320Z,10.60
2017-08-09T01:10:54.839Z,11.00
2017-08-09T01:13:22.386Z,11.57
2017-08-09T01:15:49.900Z,10.97
2017-08-09T01:18:17.420Z,10.13
2017-08-09T01:20:44.967Z,11.40
2017-08-09T01:23:12.517Z,11.03
2017-08-09T01:25:40.046Z,11.40
2017-08-09T01:28:07.571Z,8.50
2017-08-09T01:30:35.090Z,8.57
2017-08-09T01:33:02.607Z,9.70
2017-08-09T01:35:30.158Z,7.23
2017-08-09T01:37:57.673Z,7.80
2017-08-09T01:40:25.194Z,8.53
2017-08-09T01:42:52.721Z,6.60
2017-08-09T01:45:20.234Z,6.73
2017-08-09T01:47:48.539Z,8.13
2017-08-09T01:50:16.068Z,6.90
2017-08-09T01:52:44.351Z,6.43
2017-08-09T01:55:11.932Z,6.90
2017-08-09T01:57:39.474Z,6.07
2017-08-09T02:00:06.980Z,6.30
2017-08-09T02:02:34.483Z,5.17
2017-08-09T02:05:02.067Z,6.83
2017-08-09T02:07:29.582Z,6.00
2017-08-09T02:09:57.860Z,5.57
2017-08-09T02:12:26.161Z,6.20
2017-08-09T02:14:53.679Z,7.83
2017-08-09T02:17:21.198Z,7.60
2017-08-09T02:19:48.857Z,6.70
2017-08-09T02:22:16.356Z,6.70
2017-08-09T02:24:43.887Z,5.57
2017-08-09T02:27:12.298Z,5.23
2017-08-09T02:29:39.801Z,5.93
2017-08-09T02:32:07.312Z,5.43
2017-08-09T02:34:34.844Z,5.80
2017-08-09T02:37:02.356Z,5.40
2017-08-09T02:39:29.870Z,6.20
2017-08-09T02:41:57.419Z,5.80
2017-08-09T02:44:25.698Z,6.10
2017-08-09T02:46:53.229Z,6.03
2017-08-09T02:49:20.761Z,5.27
2017-08-09T02:51:48.260Z,5.40
2017-08-09T02:54:16.525Z,5.20
2017-08-09T02:56:44.062Z,5.47
2017-08-09T02:59:11.565Z,6.30
2017-08-09T03:01:39.087Z,5.40
2017-08-09T03:04:06.612Z,6.70
2017-08-09T03:06:34.108Z,5.50
2017-08-09T03:09:01.623Z,5.90
2017-08-09T03:11:29.296Z,5.80
2017-08-09T03:13:56.810Z,6.63
2017-08-09T03:16:25.081Z,5.70
2017-08-09T03:18:53.395Z,5.50
2017-08-09T03:21:20.910Z,6.30
2017-08-09T03:23:49.195Z,6.43
2017-08-09T03:26:17.507Z,6.50
2017-08-09T03:28:45.024Z,6.13
2017-08-09T03:31:13.294Z,7.43
2017-08-09T03:33:40.816Z,6.67
2017-08-09T03:36:08.435Z,7.43
2017-08-09T03:38:35.936Z,6.50
2017-08-09T03:41:03.482Z,7.10
2017-08-09T03:43:30.984Z,7.90
2017-08-09T03:45:58.502Z,6.90
2017-08-09T03:48:26.038Z,5.70
2017-08-09T03:50:53.548Z,6.87
2017-08-09T03:53:21.056Z,6.63
2017-08-09T03:55:48.583Z,7.07
2017-08-09T03:58:16.859Z,6.57
2017-08-09T04:00:45.124Z,7.37
2017-08-09T04:03:12.670Z,7.20
2017-08-09T04:05:40.167Z,6.37
2017-08-09T04:08:08.435Z,6.97
2017-08-09T04:10:36.850Z,6.60
2017-08-09T04:13:04.407Z,6.17
2017-08-09T04:15:31.934Z,6.80
2017-08-09T04:18:00.224Z,7.47
2017-08-09T04:20:27.729Z,5.60
2017-08-09T04:22:55.250Z,6.13
2017-08-09T04:25:22.777Z,6.90
2017-08-09T04:27:51.048Z,6.43
2017-08-09T04:30:19.331Z,6.70
2017-08-09T04:32:47.642Z,6.23
2017-08-09T04:35:15.162Z,6.50
2017-08-09T04:37:43.427Z,6.50
2017-08-09T04:40:10.975Z,6.93
2017-08-09T04:42:38.507Z,7.07
2017-08-09T04:45:06.008Z,5.93
2017-08-09T04:47:34.296Z,6.83
2017-08-09T04:50:02.560Z,6.20
2017-08-09T04:52:30.850Z,6.20
2017-08-09T04:54:59.159Z,6.10
2017-08-09T04:57:26.656Z,6.20
2017-08-09T04:59:54.152Z,5.80
2017-08-09T05:02:21.679Z,5.80
2017-08-09T05:04:49.188Z,6.40
2017-08-09T05:07:16.687Z,5.60
2017-08-09T05:09:44.213Z,4.80
2017-08-09T05:12:11.730Z,5.37
2017-08-09T05:14:40.011Z,5.53
2017-08-09T05:17:08.319Z,4.80
2017-08-09T05:19:35.830Z,4.33
2017-08-09T05:22:03.338Z,4.90
2017-08-09T05:24:30.878Z,4.60
2017-08-09T05:26:58.394Z,5.03
2017-08-09T05:29:25.902Z,4.47
2017-08-09T05:31:53.458Z,4.80
2017-08-09T05:34:21.724Z,4.30
2017-08-09T05:36:50.015Z,4.53
2017-08-09T05:39:18.423Z,5.20
2017-08-09T05:41:45.938Z,5.10
2017-08-09T05:44:14.218Z,4.97
2017-08-09T05:46:42.508Z,4.50
2017-08-09T05:49:10.802Z,4.87
2017-08-09T05:51:38.325Z,5.10
2017-08-09T05:54:05.856Z,4.83
2017-08-09T05:56:33.371Z,5.40
2017-08-09T05:59:00.876Z,5.50
2017-08-09T06:01:28.420Z,5.37
2017-08-09T06:03:55.934Z,6.17
2017-08-09T06:06:23.458Z,6.90
2017-08-09T06:08:51.006Z,6.97
2017-08-09T06:11:18.508Z,7.70
2017-08-09T06:13:46.022Z,7.53
2017-08-09T06:16:14.332Z,8.60
2017-08-09T06:18:41.846Z,8.00
2017-08-09T06:21:10.153Z,8.33
2017-08-09T06:23:37.698Z,8.83
2017-08-09T06:26:05.215Z,7.93
2017-08-09T06:28:32.739Z,7.93
2017-08-09T06:31:00.263Z,7.40
2017-08-09T06:33:27.783Z,8.00
2017-08-09T06:35:55.285Z,8.50
2017-08-09T06:38:22.817Z,8.90
2017-08-09T06:40:50.339Z,10.10
2017-08-09T06:43:18.622Z,9.90
2017-08-09T06:45:46.937Z,8.67
2017-08-09T06:48:14.486Z,8.23
2017-08-09T06:50:41.988Z,8.13
2017-08-09T06:53:09.610Z,7.50
2017-08-09T06:55:37.130Z,8.80
2017-08-09T06:58:05.405Z,10.40
2017-08-09T07:00:33.722Z,10.73
2017-08-09T07:03:01.272Z,10.57
2017-08-09T07:05:29.558Z,9.00
2017-08-09T07:07:57.856Z,10.87
2017-08-09T07:10:25.391Z,10.97
2017-08-09T07:12:53.671Z,11.90
2017-08-09T07:15:21.972Z,11.83
2017-08-09T07:17:49.484Z,11.47
2017-08-09T07:20:17.010Z,12.00
2017-08-09T07:22:44.558Z,13.30
2017-08-09T07:25:12.068Z,13.20
2017-08-09T07:27:40.340Z,14.07
2017-08-09T07:30:07.910Z,13.13
2017-08-09T07:32:36.188Z,11.40
2017-08-09T07:35:03.688Z,9.63
2017-08-09T07:37:31.230Z,9.57
2017-08-09T07:39:58.729Z,9.70
2017-08-09T07:42:27.001Z,8.70
2017-08-09T07:44:55.310Z,9.23
2017-08-09T07:47:22.876Z,8.13
2017-08-09T07:49:51.249Z,7.10
2017-08-09T07:52:18.799Z,7.23
2017-08-09T07:54:46.296Z,6.43
2017-08-09T07:57:13.803Z,5.07
2017-08-09T07:59:42.096Z,4.23
2017-08-09T08:02:09.615Z,4.50
2017-08-09T08:04:37.112Z,3.97
2017-08-09T08:07:04.680Z,3.53
2017-08-09T08:09:32.180Z,3.40
2017-08-09T08:11:59.695Z,3.47
2017-08-09T08:14:27.243Z,3.30
2017-08-09T08:16:54.736Z,2.60
2017-08-09T08:19:22.250Z,3.00
2017-08-09T08:21:49.792Z,2.27
2017-08-09T08:24:18.075Z,2.80
2017-08-09T08:26:45.599Z,2.33
2017-08-09T08:29:13.124Z,2.50
2017-08-09T08:31:40.624Z,2.90
2017-08-09T08:34:08.137Z,3.10
2017-08-09T08:36:35.678Z,3.30
2017-08-09T08:39:03.261Z,3.20
2017-08-09T08:41:30.770Z,3.87
2017-08-09T08:43:59.064Z,4.70
2017-08-09T08:46:27.342Z,4.27
2017-08-09T08:48:54.927Z,3.70
2017-08-09T08:51:22.470Z,3.30
2017-08-09T08:53:49.991Z,4.23
2017-08-09T08:56:17.492Z,4.40
2017-08-09T08:58:45.034Z,4.00
2017-08-09T09:01:12.546Z,4.00
2017-08-09T09:03:40.063Z,4.27
2017-08-09T09:06:07.636Z,4.90
2017-08-09T09:08:35.140Z,4.63
2017-08-09T09:11:02.644Z,4.03
2017-08-09T09:13:30.172Z,5.00
2017-08-09T09:15:58.437Z,3.87
2017-08-09T09:18:25.941Z,4.87
2017-08-09T09:20:53.468Z,4.10
2017-08-09T09:23:21.736Z,4.00
2017-08-09T09:25:50.015Z,4.60
2017-08-09T09:28:18.332Z,5.47
2017-08-09T09:30:45.834Z,6.37
2017-08-09T09:33:13.351Z,5.10
2017-08-09T09:35:40.907Z,5.33
2017-08-09T09:38:08.427Z,3.60
2017-08-09T09:40:36.693Z,2.50
2017-08-09T09:43:05.008Z,2.30
2017-08-09T09:45:32.516Z,2.20
2017-08-09T09:48:00.020Z,2.53
2017-08-09T09:50:27.575Z,2.90
2017-08-09T09:52:55.099Z,2.00
2017-08-09T09:55:22.614Z,2.10
2017-08-09T09:57:50.157Z,2.07
2017-08-09T10:00:17.675Z,1.60
2017-08-09T10:02:45.186Z,1.80
2017-08-09T10:05:13.254Z,1.80
2017-08-09T10:07:40.765Z,1.67
2017-08-09T10:10:08.265Z,1.53
2017-08-09T10:12:35.831Z,1.60
2017-08-09T10:15:03.343Z,1.60
2017-08-09T10:17:31.671Z,1.57
2017-08-09T10:19:59.204Z,1.67
2017-08-09T10:22:26.709Z,2.03
2017-08-09T10:24:54.226Z,1.53
2017-08-09T10:27:21.760Z,1.50
2017-08-09T10:29:50.075Z,1.30
2017-08-09T10:32:17.586Z,1.47
2017-08-09T10:34:45.115Z,1.33
2017-08-09T10:37:12.621Z,1.20
2017-08-09T10:39:40.911Z,1.30
2017-08-09T10:42:08.432Z,1.33
2017-08-09T10:44:35.942Z,1.40
2017-08-09T10:47:03.458Z,1.50
2017-08-09T10:49:31.753Z,1.33
2017-08-09T10:51:59.251Z,1.50
2017-08-09T10:54:26.767Z,1.50
2017-08-09T10:56:54.314Z,1.30
2017-08-09T10:59:22.594Z,1.30
2017-08-09T11:01:50.905Z,1.30
2017-08-09T11:04:18.432Z,1.40
2017-08-09T11:06:46.696Z,1.90
2017-08-09T11:09:14.959Z,1.20
2017-08-09T11:11:42.507Z,1.50
2017-08-09T11:14:10.022Z,1.70
2017-08-09T11:16:37.519Z,1.60
2017-08-09T11:19:05.075Z,1.30
2017-08-09T11:21:32.603Z,1.40
2017-08-09T11:24:00.114Z,1.20
2017-08-09T11:26:27.640Z,1.27
2017-08-09T11:28:55.159Z,0.90
2017-08-09T11:31:22.656Z,1.33
2017-08-09T11:33:50.301Z,1.40
2017-08-09T11:36:17.804Z,1.10
2017-08-09T11:38:45.304Z,1.00
2017-08-09T11:41:12.828Z,1.20
2017-08-09T11:43:40.354Z,1.20
2017-08-09T11:46:07.871Z,1.23
2017-08-09T11:48:35.400Z,1.10
2017-08-09T11:51:02.914Z,0.80
2017-08-09T11:53:30.443Z,0.90
2017-08-09T11:55:57.974Z,0.97
2017-08-09T11:58:25.586Z,1.00
2017-08-09T12:00:53.084Z,0.90
2017-08-09T12:03:20.643Z,1.10
2017-08-09T12:05:48.228Z,1.10
2017-08-09T12:08:16.511Z,0.93
2017-08-09T12:10:44.045Z,1.20
2017-08-09T12:13:11.565Z,1.03
2017-08-09T12:15:39.064Z,0.90
2017-08-09T12:18:06.593Z,1.37
2017-08-09T12:20:34.096Z,1.20
2017-08-09T12:23:02.378Z,1.40
2017-08-09T12:25:29.966Z,1.40
2017-08-09T12:27:57.483Z,1.10
2017-08-09T12:30:25.766Z,1.10
2017-08-09T12:32:54.065Z,1.10
2017-08-09T12:35:21.636Z,1.37
2017-08-09T12:37:49.164Z,3.37
2017-08-09T12:40:17.469Z,1.10
2017-08-09T12:42:45.027Z,1.17
2017-08-09T12:45:12.547Z,1.60
2017-08-09T12:47:40.859Z,1.20
2017-08-09T12:50:08.424Z,1.13
2017-08-09T12:52:35.924Z,1.00
2017-08-09T12:55:03.540Z,1.00
2017-08-09T12:57:31.045Z,0.90
2017-08-09T12:59:58.558Z,1.20
2017-08-09T13:02:26.084Z,1.37
2017-08-09T13:04:54.352Z,1.00
2017-08-09T13:07:22.629Z,1.30
2017-08-09T13:09:50.936Z,0.83
2017-08-09T13:12:18.435Z,0.90
2017-08-09T13:14:45.946Z,1.10
2017-08-09T13:17:13.486Z,1.20
2017-08-09T13:19:41.770Z,1.10
2017-08-09T13:22:09.290Z,0.90
2017-08-09T13:24:36.838Z,1.10
2017-08-09T13:27:04.337Z,1.20
2017-08-09T13:29:32.623Z,1.10
2017-08-09T13:32:00.154Z,0.90
2017-08-09T13:34:28.480Z,1.07
2017-08-09T13:36:56.018Z,1.20
2017-08-09T13:39:23.599Z,1.27
2017-08-09T13:41:51.119Z,1.17
2017-08-09T13:44:19.400Z,1.57
2017-08-09T13:46:47.816Z,1.00
2017-08-09T13:49:15.324Z,0.90
2017-08-09T13:51:42.820Z,1.00
2017-08-09T13:54:10.348Z,1.00
2017-08-09T13:56:38.627Z,1.00
2017-08-09T13:59:06.906Z,0.90
2017-08-09T14:01:35.319Z,1.03
2017-08-09T14:04:02.839Z,1.43
2017-08-09T14:06:31.162Z,1.17
2017-08-09T14:08:58.701Z,0.90
2017-08-09T14:11:26.204Z,1.00
2017-08-09T14:13:53.724Z,1.00
2017-08-09T14:16:21.272Z,1.00
2017-08-09T14:18:48.848Z,1.00
2017-08-09T14:21:16.349Z,0.90
2017-08-09T14:23:43.965Z,1.03
2017-08-09T14:26:11.469Z,1.00
2017-08-09T14:28:38.988Z,1.00
2017-08-09T14:31:06.531Z,1.03
2017-08-09T14:33:34.101Z,1.00
2017-08-09T14:36:01.659Z,0.97
2017-08-09T14:38:29.183Z,1.07
2017-08-09T14:40:57.474Z,1.00
2017-08-09T14:43:24.986Z,0.90
2017-08-09T14:45:52.512Z,0.90
2017-08-09T14:48:20.016Z,1.00
2017-08-09T14:50:47.515Z,1.00
2017-08-09T14:53:15.085Z,0.93
2017-08-09T14:55:42.602Z,1.00
2017-08-09T14:58:10.867Z,1.10
2017-08-09T15:00:38.392Z,0.87
2017-08-09T15:03:05.911Z,1.20
2017-08-09T15:05:33.421Z,1.13
2017-08-09T15:08:01.357Z,1.00
2017-08-09T15:10:28.923Z,1.10
2017-08-09T15:12:56.419Z,1.37
2017-08-09T15:15:23.972Z,1.00
2017-08-09T15:17:51.600Z,1.10
2017-08-09T15:20:19.118Z,1.13
2017-08-09T15:22:47.413Z,1.00
2017-08-09T15:25:14.930Z,1.20
2017-08-09T15:27:42.436Z,0.90
2017-08-09T15:30:09.987Z,0.90
2017-08-09T15:32:37.489Z,1.00
2017-08-09T15:35:05.022Z,1.10
2017-08-09T15:37:32.562Z,1.00
2017-08-09T15:40:00.142Z,1.13
2017-08-09T15:42:27.640Z,1.00
2017-08-09T15:44:55.190Z,1.27
2017-08-09T15:47:22.707Z,1.00
2017-08-09T15:49:50.231Z,1.20
2017-08-09T15:52:18.532Z,1.80
2017-08-09T15:54:46.039Z,1.40
2017-08-09T15:57:13.536Z,1.17
2017-08-09T15:59:41.839Z,1.00
2017-08-09T16:02:09.353Z,1.00
2017-08-09T16:04:36.874Z,1.80
2017-08-09T16:07:04.419Z,1.80
2017-08-09T16:09:31.915Z,1.10
2017-08-09T16:11:59.425Z,1.00
2017-08-09T16:14:26.962Z,1.13
2017-08-09T16:16:55.270Z,0.90
2017-08-09T16:19:22.777Z,1.20
2017-08-09T16:21:50.318Z,1.10
2017-08-09T16:24:17.830Z,1.00
2017-08-09T16:26:45.328Z,1.37
2017-08-09T16:29:12.965Z,0.90
2017-08-09T16:31:40.524Z,1.00
2017-08-09T16:34:08.081Z,1.10
2017-08-09T16:36:35.612Z,1.03
2017-08-09T16:39:03.917Z,1.00
2017-08-09T16:41:31.415Z,0.90
2017-08-09T16:43:58.963Z,1.13
2017-08-09T16:46:26.482Z,1.10
2017-08-09T16:48:53.984Z,1.00
2017-08-09T16:51:21.532Z,1.20
2017-08-09T16:53:49.032Z,1.20
2017-08-09T16:56:17.300Z,1.00
2017-08-09T16:58:45.611Z,1.20
2017-08-09T17:01:13.112Z,0.97
2017-08-09T17:03:40.630Z,1.00
2017-08-09T17:06:08.169Z,1.00
2017-08-09T17:08:35.692Z,1.10
2017-08-09T17:11:03.315Z,1.30
2017-08-09T17:13:30.889Z,0.93
2017-08-09T17:15:58.406Z,1.13
2017-08-09T17:18:25.923Z,1.10
2017-08-09T17:20:53.467Z,1.00
2017-08-09T17:23:20.986Z,3.90
2017-08-09T17:25:48.516Z,1.60
2017-08-09T17:28:16.020Z,0.90
2017-08-09T17:30:43.538Z,1.30
2017-08-09T17:33:11.828Z,1.20
2017-08-09T17:35:39.320Z,1.37
2017-08-09T17:38:06.831Z,1.23
2017-08-09T17:40:34.393Z,1.30
2017-08-09T17:43:01.892Z,1.20
2017-08-09T17:45:29.427Z,1.30
2017-08-09T17:47:56.971Z,1.23
2017-08-09T17:50:24.495Z,1.20
2017-08-09T17:52:51.997Z,1.00
2017-08-09T17:55:19.523Z,1.40
2017-08-09T17:57:47.024Z,1.00
2017-08-09T18:00:14.538Z,1.40
2017-08-09T18:02:42.111Z,1.40
2017-08-09T18:05:09.611Z,1.80
2017-08-09T18:07:37.104Z,1.50
2017-08-09T18:10:04.655Z,1.50
2017-08-09T18:12:32.937Z,1.10
2017-08-09T18:15:00.525Z,1.40
2017-08-09T18:17:28.082Z,1.60
2017-08-09T18:19:55.644Z,1.53
2017-08-09T18:22:23.143Z,1.27
2017-08-09T18:24:50.678Z,1.47
2017-08-09T18:27:18.195Z,1.90
2017-08-09T18:29:45.714Z,1.70
2017-08-09T18:32:13.360Z,1.63
2017-08-09T18:34:40.873Z,1.57
2017-08-09T18:37:08.373Z,1.60
2017-08-09T18:39:35.910Z,1.40
2017-08-09T18:42:03.412Z,1.33
2017-08-09T18:44:31.029Z,1.40
2017-08-09T18:46:58.541Z,1.47
2017-08-09T18:49:26.804Z,1.43
2017-08-09T18:51:54.343Z,1.80
2017-08-09T18:54:21.898Z,1.87
2017-08-09T18:56:49.436Z,1.77
2017-08-09T18:59:16.937Z,2.67
2017-08-09T19:01:44.557Z,3.13
2017-08-09T19:04:12.083Z,3.20
2017-08-09T19:06:40.367Z,1.97
2017-08-09T19:09:07.868Z,1.80
2017-08-09T19:11:35.388Z,1.80
2017-08-09T19:14:02.908Z,1.90
2017-08-09T19:16:30.431Z,1.83
2017-08-09T19:18:57.979Z,1.73
2017-08-09T19:21:25.485Z,1.50
2017-08-09T19:23:53.016Z,2.40
2017-08-09T19:26:20.547Z,2.10
2017-08-09T19:28:48.073Z,2.40
2017-08-09T19:31:16.389Z,2.50
2017-08-09T19:33:43.905Z,2.13
2017-08-09T19:36:12.180Z,2.07
2017-08-09T19:38:39.755Z,2.10
2017-08-09T19:41:08.039Z,2.10
2017-08-09T19:43:35.543Z,1.90
2017-08-09T19:46:03.085Z,1.70
2017-08-09T19:48:30.603Z,2.17
2017-08-09T19:50:58.914Z,1.77
2017-08-09T19:53:26.461Z,1.97
2017-08-09T19:55:53.986Z,2.20
2017-08-09T19:58:22.309Z,2.60
2017-08-09T20:00:49.849Z,3.00
2017-08-09T20:03:17.426Z,2.83
2017-08-09T20:05:44.942Z,3.60
2017-08-09T20:08:13.255Z,2.23
2017-08-09T20:10:40.770Z,2.50
2017-08-09T20:13:08.287Z,3.00
2017-08-09T20:15:35.808Z,2.50
2017-08-09T20:18:03.335Z,2.20
2017-08-09T20:20:30.895Z,2.20
2017-08-09T20:22:58.411Z,2.70
2017-08-09T20:25:25.914Z,2.57
2017-08-09T20:27:53.441Z,2.60
2017-08-09T20:30:20.982Z,2.63
2017-08-09T20:32:48.547Z,2.70
2017-08-09T20:35:16.106Z,2.80
2017-08-09T20:37:43.624Z,2.63
2017-08-09T20:40:12.168Z,3.03
2017-08-09T20:42:39.719Z,2.53
2017-08-09T20:45:07.264Z,3.10
2017-08-09T20:47:34.763Z,2.60
2017-08-09T20:50:02.382Z,3.10
2017-08-09T20:52:29.903Z,3.13
2017-08-09T20:54:58.169Z,3.13
2017-08-09T20:57:26.464Z,3.20
2017-08-09T20:59:54.742Z,2.80
2017-08-09T21:02:22.248Z,3.30
2017-08-09T21:04:49.764Z,2.90
2017-08-09T21:07:17.273Z,3.00
2017-08-09T21:09:44.810Z,2.93
2017-08-09T21:12:12.318Z,3.00
2017-08-09T21:14:40.592Z,3.40
2017-08-09T21:17:08.911Z,3.63
2017-08-09T21:19:36.422Z,3.80
2017-08-09T21:22:03.930Z,4.20
2017-08-09T21:24:31.449Z,3.90
2017-08-09T21:26:59.714Z,4.33
2017-08-09T21:29:27.324Z,3.47
2017-08-09T21:31:54.834Z,3.57
2017-08-09T21:34:22.351Z,3.73
2017-08-09T21:36:49.882Z,4.37
2017-08-09T21:39:17.400Z,3.30
2017-08-09T21:41:44.933Z,4.00
2017-08-09T21:44:12.445Z,4.40
2017-08-09T21:46:40.730Z,4.33
2017-08-09T21:49:08.274Z,4.27
2017-08-09T21:51:36.541Z,4.53
2017-08-09T21:54:04.836Z,4.00
2017-08-09T21:56:32.363Z,4.33
2017-08-09T21:59:01.387Z,5.53
2017-08-09T22:01:28.880Z,5.40
2017-08-09T22:03:56.418Z,4.13
2017-08-09T22:06:23.926Z,4.20
2017-08-09T22:08:51.424Z,4.60
2017-08-09T22:11:18.970Z,4.40
2017-08-09T22:13:47.278Z,4.70
2017-08-09T22:16:14.790Z,4.80
2017-08-09T22:18:42.321Z,5.30
2017-08-09T22:21:09.832Z,5.90
2017-08-09T22:23:37.356Z,4.50
2017-08-09T22:26:04.974Z,4.83
2017-08-09T22:28:32.490Z,5.20
2017-08-09T22:31:00.798Z,4.63
2017-08-09T22:33:28.313Z,5.03
2017-08-09T22:35:55.926Z,4.93
2017-08-09T22:38:23.452Z,5.77
2017-08-09T22:40:51.716Z,5.80
2017-08-09T22:43:19.998Z,5.93
2017-08-09T22:45:48.310Z,4.53
2017-08-09T22:48:15.820Z,6.33
2017-08-09T22:50:43.328Z,6.03
2017-08-09T22:53:10.869Z,6.60
2017-08-09T22:55:38.378Z,6.23
2017-08-09T22:58:05.895Z,5.27
2017-08-09T23:00:33.425Z,6.40
2017-08-09T23:03:01.719Z,5.50
2017-08-09T23:05:29.218Z,6.10
2017-08-09T23:07:56.736Z,6.70
2017-08-09T23:10:24.254Z,5.40
2017-08-09T23:12:51.784Z,5.87
2017-08-09T23:15:25.375Z,5.37
2017-08-09T23:17:52.932Z,5.60
2017-08-09T23:20:20.490Z,4.43
2017-08-09T23:22:47.995Z,6.70
2017-08-09T23:25:15.551Z,5.67
2017-08-09T23:27:43.052Z,6.20
2017-08-09T23:30:10.556Z,5.87
2017-08-09T23:32:38.087Z,5.20
2017-08-09T23:35:05.588Z,5.60
2017-08-09T23:37:33.087Z,6.27
2017-08-09T23:40:00.628Z,6.20
2017-08-09T23:42:28.901Z,5.80
2017-08-09T23:44:57.168Z,7.23
2017-08-09T23:47:25.478Z,6.70
2017-08-09T23:49:52.993Z,7.37
2017-08-09T23:52:20.512Z,5.80
2017-08-09T23:54:48.054Z,6.47
2017-08-09T23:57:15.572Z,5.63
2017-08-09T23:59:43.893Z,5.57
